createdAt,value
2019-03-02T00:00:07.942Z,42.50
2019-03-02T00:01:13.350Z,47.75
2019-03-02T00:02:17.163Z,40.50
2019-03-02T00:03:19.973Z,50.00
2019-03-02T00:04:22.820Z,48.75
2019-03-02T00:05:28.100Z,46.75
2019-03-02T00:06:32.811Z,43.50
2019-03-02T00:07:35.495Z,48.25
2019-03-02T00:08:38.286Z,40.75
2019-03-02T00:09:41.078Z,43.75
2019-03-02T00:10:44.460Z,48.75
2019-03-02T00:11:48.865Z,43.00
2019-03-02T00:12:51.720Z,43.50
2019-03-02T00:13:54.572Z,43.00
2019-03-02T00:14:57.414Z,48.50
2019-03-02T00:16:00.927Z,47.00
2019-03-02T00:17:03.872Z,49.50
2019-03-02T00:18:09.477Z,40.75
2019-03-02T00:19:25.616Z,40.50
2019-03-02T00:20:28.512Z,40.25
2019-03-02T00:21:32.385Z,38.25
2019-03-02T00:22:39.586Z,40.75
2019-03-02T00:23:41.400Z,43.25
2019-03-02T00:24:44.480Z,46.00
2019-03-02T00:25:50.107Z,39.75
2019-03-02T00:26:52.953Z,55.00
2019-03-02T00:27:58.257Z,55.00
2019-03-02T00:29:00.192Z,55.50
2019-03-02T00:30:02.995Z,41.50
2019-03-02T00:31:06.398Z,46.00
2019-03-02T00:32:09.650Z,45.50
2019-03-02T00:33:16.547Z,46.00
2019-03-02T00:34:18.400Z,47.00
2019-03-02T00:35:21.204Z,47.50
2019-03-02T00:36:24.010Z,40.50
2019-03-02T00:37:29.715Z,40.75
2019-03-02T00:38:31.585Z,56.50
2019-03-02T00:39:34.422Z,39.00
2019-03-02T00:40:37.232Z,44.50
2019-03-02T00:41:42.180Z,50.50
2019-03-02T00:42:45.299Z,44.75
2019-03-02T00:43:49.939Z,49.75
2019-03-02T00:44:52.677Z,52.50
2019-03-02T00:45:57.418Z,45.75
2019-03-02T00:47:00.528Z,45.25
2019-03-02T00:48:03.402Z,44.00
2019-03-02T00:49:09.407Z,45.75
2019-03-02T00:50:12.206Z,46.50
2019-03-02T00:51:17.240Z,44.50
2019-03-02T00:52:23.664Z,45.75
2019-03-02T00:53:31.854Z,55.25
2019-03-02T00:54:34.316Z,48.25
2019-03-02T00:55:37.450Z,45.75
2019-03-02T00:56:42.824Z,48.75
2019-03-02T00:57:45.593Z,50.25
2019-03-02T00:58:48.439Z,42.00
2019-03-02T00:59:51.237Z,51.00
2019-03-02T01:00:55.638Z,48.00
2019-03-02T01:02:00.678Z,41.75
2019-03-02T01:03:03.314Z,47.00
2019-03-02T01:04:06.347Z,48.25
2019-03-02T01:05:09.473Z,39.75
2019-03-02T01:06:12.717Z,45.50
2019-03-02T01:07:20.793Z,46.75
2019-03-02T01:08:22.304Z,51.25
2019-03-02T01:09:25.491Z,42.75
2019-03-02T01:10:28.359Z,41.75
2019-03-02T01:11:32.875Z,50.00
2019-03-02T01:12:35.623Z,41.25
2019-03-02T01:13:38.803Z,49.75
2019-03-02T01:14:41.620Z,42.75
2019-03-02T01:15:47.595Z,42.25
2019-03-02T01:16:51.790Z,39.50
2019-03-02T01:17:54.889Z,47.25
2019-03-02T01:18:57.676Z,38.75
2019-03-02T01:20:00.748Z,48.25
2019-03-02T01:21:03.943Z,46.25
2019-03-02T01:22:13.599Z,48.25
2019-03-02T01:23:15.323Z,43.50
2019-03-02T01:24:18.151Z,51.25
2019-03-02T01:25:20.977Z,39.50
2019-03-02T01:26:27.429Z,41.25
2019-03-02T01:27:31.758Z,40.00
2019-03-02T01:28:33.085Z,41.50
2019-03-02T01:29:37.959Z,44.25
2019-03-02T01:30:40.783Z,43.00
2019-03-02T01:31:43.569Z,39.00
2019-03-02T01:32:48.980Z,47.25
2019-03-02T01:33:51.221Z,48.75
2019-03-02T01:34:54.020Z,48.00
2019-03-02T01:35:57.042Z,37.50
2019-03-02T01:37:00.507Z,47.00
2019-03-02T01:38:03.378Z,39.00
2019-03-02T01:39:07.009Z,46.25
2019-03-02T01:40:09.785Z,46.25
2019-03-02T01:41:13.955Z,46.75
2019-03-02T01:42:17.306Z,53.50
2019-03-02T01:43:20.135Z,46.00
2019-03-02T01:44:23.004Z,42.00
2019-03-02T01:45:27.785Z,43.75
2019-03-02T01:46:30.611Z,37.25
2019-03-02T01:47:33.406Z,40.00
2019-03-02T01:48:36.190Z,45.25
2019-03-02T01:49:39.018Z,43.00
2019-03-02T01:50:43.783Z,46.25
2019-03-02T01:51:46.705Z,38.75
2019-03-02T01:52:49.527Z,41.75
2019-03-02T01:53:52.368Z,40.50
2019-03-02T01:54:55.730Z,47.00
2019-03-02T01:56:02.634Z,45.75
2019-03-02T01:57:03.970Z,43.25
2019-03-02T01:58:07.008Z,44.00
2019-03-02T01:59:09.851Z,46.75
2019-03-02T02:00:13.852Z,48.25
2019-03-02T02:01:17.291Z,53.50
2019-03-02T02:02:20.097Z,41.25
2019-03-02T02:03:22.937Z,44.75
2019-03-02T02:04:26.077Z,48.00
2019-03-02T02:05:31.993Z,49.25
2019-03-02T02:06:33.425Z,48.75
2019-03-02T02:07:42.247Z,44.50
2019-03-02T02:08:45.050Z,46.75
2019-03-02T02:09:47.898Z,40.25
2019-03-02T02:10:50.967Z,56.75
2019-03-02T02:11:54.261Z,45.50
2019-03-02T02:12:57.118Z,45.75
2019-03-02T02:13:59.927Z,55.50
2019-03-02T02:15:02.734Z,52.50
2019-03-02T02:16:06.716Z,52.00
2019-03-02T02:17:11.069Z,52.00
2019-03-02T02:18:13.935Z,49.50
2019-03-02T02:19:16.728Z,43.25
2019-03-02T02:20:19.947Z,49.75
2019-03-02T02:21:23.729Z,44.75
2019-03-02T02:22:27.235Z,48.25
2019-03-02T02:23:30.303Z,47.25
2019-03-02T02:24:35.622Z,44.25
2019-03-02T02:25:42.856Z,54.25
2019-03-02T02:26:46.932Z,51.50
2019-03-02T02:27:54.927Z,44.75
2019-03-02T02:28:57.414Z,47.00
2019-03-02T02:30:03.781Z,48.25
2019-03-02T02:31:08.008Z,44.00
2019-03-02T02:32:10.868Z,53.00
2019-03-02T02:33:13.753Z,50.75
2019-03-02T02:34:21.124Z,49.00
2019-03-02T02:35:22.686Z,47.75
2019-03-02T02:36:25.510Z,46.75
2019-03-02T02:37:32.326Z,43.50
2019-03-02T02:38:33.225Z,49.25
2019-03-02T02:39:36.063Z,52.75
2019-03-02T02:40:38.859Z,42.25
2019-03-02T02:41:41.960Z,41.75
2019-03-02T02:42:45.053Z,46.25
2019-03-02T02:43:48.008Z,43.25
2019-03-02T02:44:50.754Z,43.25
2019-03-02T02:45:55.081Z,43.25
2019-03-02T02:46:58.074Z,47.25
2019-03-02T02:48:01.165Z,42.75
2019-03-02T02:49:05.234Z,45.75
2019-03-02T02:50:08.578Z,49.75
2019-03-02T02:51:12.359Z,43.50
2019-03-02T02:52:15.523Z,41.50
2019-03-02T02:53:18.419Z,42.25
2019-03-02T02:54:23.332Z,51.00
2019-03-02T02:55:25.950Z,47.00
2019-03-02T02:56:28.749Z,51.50
2019-03-02T02:57:33.577Z,43.50
2019-03-02T02:58:36.419Z,44.75
2019-03-02T02:59:39.925Z,49.25
2019-03-02T03:00:43.007Z,43.00
2019-03-02T03:01:46.230Z,45.75
2019-03-02T03:02:49.065Z,39.75
2019-03-02T03:03:54.974Z,53.00
2019-03-02T03:04:56.470Z,53.25
2019-03-02T03:05:59.268Z,50.00
2019-03-02T03:07:02.362Z,47.50
2019-03-02T03:08:05.146Z,45.75
2019-03-02T03:09:17.038Z,37.75
2019-03-02T03:10:34.036Z,46.75
2019-03-02T03:11:44.005Z,47.00
2019-03-02T03:12:41.284Z,51.25
2019-03-02T03:13:44.392Z,46.00
2019-03-02T03:14:47.187Z,51.00
2019-03-02T03:15:51.741Z,52.25
2019-03-02T03:16:55.653Z,51.25
2019-03-02T03:17:58.639Z,37.75
2019-03-02T03:19:01.453Z,48.75
2019-03-02T03:20:05.603Z,42.75
2019-03-02T03:21:08.980Z,46.75
2019-03-02T03:22:11.789Z,47.00
2019-03-02T03:23:14.670Z,49.25
2019-03-02T03:24:17.455Z,48.00
2019-03-02T03:25:20.336Z,45.50
2019-03-02T03:26:23.405Z,51.00
2019-03-02T03:27:26.221Z,45.50
2019-03-02T03:28:30.531Z,42.25
2019-03-02T03:29:33.555Z,46.25
2019-03-02T03:30:39.758Z,56.00
2019-03-02T03:31:40.786Z,48.75
2019-03-02T03:32:54.858Z,42.50
2019-03-02T03:33:48.823Z,49.25
2019-03-02T03:34:51.731Z,47.25
2019-03-02T03:35:56.101Z,45.75
2019-03-02T03:36:59.094Z,44.75
2019-03-02T03:38:01.890Z,57.50
2019-03-02T03:39:07.136Z,49.50
2019-03-02T03:40:10.838Z,50.00
2019-03-02T03:41:13.714Z,47.00
2019-03-02T03:42:22.242Z,48.75
2019-03-02T03:43:20.994Z,43.50
2019-03-02T03:44:27.141Z,45.75
2019-03-02T03:45:28.998Z,45.25
2019-03-02T03:46:31.993Z,44.25
2019-03-02T03:47:38.814Z,42.25
2019-03-02T03:48:39.372Z,48.75
2019-03-02T03:49:42.157Z,49.25
2019-03-02T03:50:48.207Z,45.75
2019-03-02T03:51:49.473Z,46.00
2019-03-02T03:52:52.256Z,55.25
2019-03-02T03:53:55.497Z,48.00
2019-03-02T03:54:58.304Z,49.50
2019-03-02T03:56:04.066Z,47.25
2019-03-02T03:57:05.889Z,45.50
2019-03-02T03:58:08.730Z,43.25
2019-03-02T03:59:14.194Z,48.75
2019-03-02T04:00:15.986Z,41.50
2019-03-02T04:01:19.236Z,45.75
2019-03-02T04:02:22.147Z,53.00
2019-03-02T04:03:25.300Z,46.75
2019-03-02T04:04:29.084Z,51.00
2019-03-02T04:05:32.534Z,38.75
2019-03-02T04:06:36.562Z,48.75
2019-03-02T04:07:48.256Z,49.25
2019-03-02T04:08:44.688Z,40.00
2019-03-02T04:09:48.294Z,47.75
2019-03-02T04:10:51.183Z,43.75
2019-03-02T04:11:53.979Z,49.00
2019-03-02T04:13:03.852Z,51.25
2019-03-02T04:14:01.322Z,48.75
2019-03-02T04:15:04.169Z,41.75
2019-03-02T04:16:07.268Z,37.25
2019-03-02T04:17:10.127Z,40.75
2019-03-02T04:18:16.328Z,42.75
2019-03-02T04:19:17.586Z,44.25
2019-03-02T04:20:20.431Z,40.75
2019-03-02T04:21:27.917Z,48.50
2019-03-02T04:22:27.737Z,36.75
2019-03-02T04:23:30.603Z,42.25
2019-03-02T04:24:39.546Z,41.25
2019-03-02T04:25:41.109Z,43.75
2019-03-02T04:26:43.938Z,38.75
2019-03-02T04:27:54.212Z,44.25
2019-03-02T04:28:52.362Z,32.25
2019-03-02T04:29:55.542Z,41.75
2019-03-02T04:30:59.172Z,38.75
2019-03-02T04:32:01.951Z,38.25
2019-03-02T04:33:05.912Z,43.25
2019-03-02T04:34:09.403Z,42.75
2019-03-02T04:35:12.235Z,37.75
2019-03-02T04:36:15.175Z,47.25
2019-03-02T04:37:20.314Z,40.50
2019-03-02T04:38:22.554Z,35.25
2019-03-02T04:39:25.369Z,40.75
2019-03-02T04:40:29.105Z,38.75
2019-03-02T04:41:31.972Z,41.50
2019-03-02T04:42:34.840Z,39.25
2019-03-02T04:43:37.632Z,43.50
2019-03-02T04:44:40.482Z,36.50
2019-03-02T04:45:43.362Z,36.50
2019-03-02T04:46:47.691Z,42.25
2019-03-02T04:47:50.758Z,38.75
2019-03-02T04:48:53.561Z,40.25
2019-03-02T04:49:56.345Z,42.25
2019-03-02T04:50:59.648Z,37.00
2019-03-02T04:52:02.567Z,39.25
2019-03-02T04:53:05.736Z,35.75
2019-03-02T04:54:08.536Z,33.25
2019-03-02T04:55:13.599Z,38.75
2019-03-02T04:56:15.813Z,31.75
2019-03-02T04:57:18.673Z,33.75
2019-03-02T04:58:23.040Z,37.25
2019-03-02T04:59:26.310Z,37.75
2019-03-02T05:00:32.040Z,35.75
2019-03-02T05:01:33.677Z,36.75
2019-03-02T05:02:36.600Z,31.25
2019-03-02T05:03:39.507Z,33.75
2019-03-02T05:04:42.623Z,31.75
2019-03-02T05:05:45.820Z,33.75
2019-03-02T05:06:50.547Z,32.25
2019-03-02T05:07:53.202Z,30.50
2019-03-02T05:08:56.020Z,26.25
2019-03-02T05:09:59.119Z,28.50
2019-03-02T05:11:03.575Z,27.50
2019-03-02T05:12:06.701Z,34.25
2019-03-02T05:13:09.521Z,25.75
2019-03-02T05:14:14.927Z,30.75
2019-03-02T05:15:17.775Z,28.25
2019-03-02T05:16:20.570Z,31.25
2019-03-02T05:17:23.358Z,29.75
2019-03-02T05:18:26.452Z,30.50
2019-03-02T05:19:29.958Z,38.25
2019-03-02T05:20:32.827Z,30.00
2019-03-02T05:21:39.899Z,31.25
2019-03-02T05:22:42.328Z,28.50
2019-03-02T05:23:45.169Z,35.00
2019-03-02T05:24:48.339Z,30.75
2019-03-02T05:25:51.605Z,30.50
2019-03-02T05:26:57.814Z,31.25
2019-03-02T05:28:03.823Z,27.00
2019-03-02T05:29:05.235Z,30.25
2019-03-02T05:30:09.162Z,24.75
2019-03-02T05:31:15.206Z,32.25
2019-03-02T05:32:21.010Z,28.75
2019-03-02T05:33:24.319Z,29.50
2019-03-02T05:34:28.775Z,29.75
2019-03-02T05:35:31.630Z,25.75
2019-03-02T05:36:34.422Z,27.00
2019-03-02T05:37:39.112Z,29.50
2019-03-02T05:38:42.062Z,26.75
2019-03-02T05:39:44.945Z,30.75
2019-03-02T05:40:47.789Z,24.50
2019-03-02T05:41:50.687Z,32.75
2019-03-02T05:42:53.496Z,27.75
2019-03-02T05:43:56.598Z,33.00
2019-03-02T05:44:59.514Z,25.00
2019-03-02T05:46:02.310Z,33.25
2019-03-02T05:47:05.163Z,32.25
2019-03-02T05:48:08.010Z,29.00
2019-03-02T05:49:10.811Z,28.25
2019-03-02T05:50:13.972Z,27.00
2019-03-02T05:51:16.782Z,25.00
2019-03-02T05:52:19.583Z,28.50
2019-03-02T05:53:22.842Z,29.25
2019-03-02T05:54:25.638Z,32.00
2019-03-02T05:55:28.547Z,25.25
2019-03-02T05:56:31.824Z,26.50
2019-03-02T05:57:36.939Z,29.00
2019-03-02T05:58:39.336Z,34.50
2019-03-02T05:59:42.190Z,31.25
2019-03-02T06:00:45.515Z,30.25
2019-03-02T06:01:48.367Z,38.75
2019-03-02T06:02:51.499Z,28.75
2019-03-02T06:03:54.786Z,27.75
2019-03-02T06:04:58.062Z,32.50
2019-03-02T06:06:01.041Z,28.75
2019-03-02T06:07:04.010Z,30.25
2019-03-02T06:08:06.917Z,26.50
2019-03-02T06:09:13.940Z,38.75
2019-03-02T06:10:14.595Z,24.50
2019-03-02T06:11:17.465Z,29.25
2019-03-02T06:12:20.326Z,29.25
2019-03-02T06:13:24.741Z,28.75
2019-03-02T06:14:30.462Z,26.50
2019-03-02T06:15:32.556Z,26.00
2019-03-02T06:16:35.452Z,34.25
2019-03-02T06:17:38.308Z,27.25
2019-03-02T06:18:42.503Z,23.00
2019-03-02T06:19:45.687Z,33.25
2019-03-02T06:20:48.487Z,30.75
2019-03-02T06:21:51.305Z,27.75
2019-03-02T06:22:55.454Z,30.75
2019-03-02T06:24:01.589Z,35.75
2019-03-02T06:25:05.600Z,33.00
2019-03-02T06:26:10.292Z,32.00
2019-03-02T06:27:13.209Z,34.50
2019-03-02T06:28:19.635Z,29.75
2019-03-02T06:29:21.515Z,36.50
2019-03-02T06:43:40.992Z,36.25
2019-03-02T06:44:43.928Z,37.50
2019-03-02T06:45:46.891Z,32.00
2019-03-02T06:46:49.747Z,32.25
2019-03-02T06:47:54.777Z,30.75
2019-03-02T06:48:57.423Z,27.00
2019-03-02T06:50:00.642Z,26.75
2019-03-02T06:51:07.775Z,28.75
2019-03-02T06:52:12.766Z,27.75
2019-03-02T06:53:17.026Z,31.75
2019-03-02T06:54:22.018Z,30.75
2019-03-02T06:55:25.524Z,27.75
2019-03-02T06:56:28.451Z,34.25
2019-03-02T06:57:31.317Z,24.25
2019-03-02T06:58:34.707Z,22.75
2019-03-02T06:59:39.336Z,27.50
2019-03-02T07:00:45.617Z,32.50
2019-03-02T07:01:47.431Z,19.50
2019-03-02T07:02:50.318Z,29.25
2019-03-02T07:03:53.216Z,29.00
2019-03-02T07:04:58.082Z,30.50
2019-03-02T07:06:00.490Z,28.75
2019-03-02T07:07:03.355Z,27.50
2019-03-02T07:08:06.169Z,29.75
2019-03-02T07:09:09.791Z,29.00
2019-03-02T07:10:13.559Z,26.00
2019-03-02T07:11:16.366Z,30.00
2019-03-02T07:12:19.233Z,26.25
2019-03-02T07:13:22.530Z,23.25
2019-03-02T07:14:28.911Z,30.25
2019-03-02T07:15:29.936Z,24.25
2019-03-02T07:16:32.785Z,26.75
2019-03-02T07:17:54.425Z,23.25
2019-03-02T07:19:16.770Z,27.00
2019-03-02T07:20:23.974Z,22.00
2019-03-02T07:21:27.016Z,23.50
2019-03-02T07:22:29.847Z,27.50
2019-03-02T07:23:33.223Z,21.50
2019-03-02T07:24:38.960Z,29.50
2019-03-02T07:25:44.236Z,24.50
2019-03-02T07:26:46.599Z,22.50
2019-03-02T07:27:49.395Z,26.75
2019-03-02T07:28:52.263Z,29.75
2019-03-02T07:29:57.376Z,33.25
2019-03-02T07:31:01.534Z,22.75
2019-03-02T07:32:07.586Z,25.50
2019-03-02T07:33:11.527Z,26.50
2019-03-02T07:34:14.418Z,29.25
2019-03-02T07:35:19.392Z,27.00
2019-03-02T07:36:22.020Z,30.50
2019-03-02T07:37:24.836Z,27.75
2019-03-02T07:38:27.917Z,30.75
2019-03-02T07:39:32.687Z,27.75
2019-03-02T07:40:35.312Z,26.75
2019-03-02T07:41:40.456Z,29.25
2019-03-02T07:42:45.964Z,30.75
2019-03-02T07:43:50.416Z,33.00
2019-03-02T07:44:54.885Z,27.00
2019-03-02T07:45:57.711Z,28.25
2019-03-02T07:47:00.514Z,31.00
2019-03-02T07:48:03.332Z,26.25
2019-03-02T07:49:09.189Z,27.00
2019-03-02T07:50:11.462Z,33.25
2019-03-02T07:51:15.986Z,28.50
2019-03-02T07:52:18.730Z,19.00
2019-03-02T07:53:24.995Z,23.00
2019-03-02T07:54:26.014Z,27.75
2019-03-02T07:55:29.124Z,35.50
2019-03-02T07:56:33.342Z,23.50
2019-03-02T07:57:36.123Z,27.25
2019-03-02T07:58:38.944Z,28.25
2019-03-02T07:59:44.216Z,30.25
2019-03-02T08:00:47.471Z,23.00
2019-03-02T08:01:52.720Z,28.00
2019-03-02T08:02:56.241Z,23.50
2019-03-02T08:04:00.959Z,31.00
2019-03-02T08:05:03.914Z,30.50
2019-03-02T08:06:06.863Z,34.25
2019-03-02T08:07:10.281Z,31.75
2019-03-02T08:08:13.979Z,26.75
2019-03-02T08:09:18.170Z,30.25
2019-03-02T08:10:21.468Z,29.00
2019-03-02T08:11:24.352Z,29.25
2019-03-02T08:12:27.200Z,31.75
2019-03-02T08:13:32.770Z,31.75
2019-03-02T08:14:34.819Z,30.75
2019-03-02T08:15:41.844Z,28.25
2019-03-02T08:16:44.685Z,33.50
2019-03-02T08:17:49.128Z,33.25
2019-03-02T08:18:53.102Z,30.25
2019-03-02T08:19:56.833Z,26.50
2019-03-02T08:21:00.715Z,32.75
2019-03-02T08:22:04.438Z,32.75
2019-03-02T08:23:07.764Z,30.75
2019-03-02T08:24:10.603Z,29.00
2019-03-02T08:25:13.857Z,27.25
2019-03-02T08:26:17.387Z,27.75
2019-03-02T08:27:20.270Z,27.50
2019-03-02T08:28:23.212Z,30.50
2019-03-02T08:29:30.429Z,30.50
2019-03-02T08:30:33.660Z,38.25
2019-03-02T08:31:41.898Z,32.25
2019-03-02T08:32:43.463Z,27.75
2019-03-02T08:33:46.671Z,29.25
2019-03-02T08:34:49.607Z,31.00
2019-03-02T08:35:52.505Z,28.00
2019-03-02T08:36:55.551Z,29.25
2019-03-02T08:38:01.676Z,32.00
2019-03-02T08:39:06.895Z,28.50
2019-03-02T08:40:09.345Z,31.75
2019-03-02T08:41:12.259Z,29.75
2019-03-02T08:42:15.121Z,32.75
2019-03-02T08:43:20.683Z,31.25
2019-03-02T08:44:24.264Z,27.50
2019-03-02T08:45:27.675Z,29.75
2019-03-02T08:46:31.695Z,29.75
2019-03-02T08:47:34.539Z,33.25
2019-03-02T08:48:40.404Z,30.25
2019-03-02T08:49:43.257Z,28.75
2019-03-02T08:50:46.389Z,30.25
2019-03-02T08:51:49.628Z,35.00
2019-03-02T08:52:52.503Z,29.25
2019-03-02T08:53:55.342Z,32.00
2019-03-02T08:54:58.336Z,34.50
2019-03-02T08:56:01.218Z,28.50
2019-03-02T08:57:04.485Z,27.50
2019-03-02T08:58:10.757Z,35.50
2019-03-02T08:59:13.595Z,31.75
2019-03-02T09:00:16.426Z,29.75
2019-03-02T09:01:19.727Z,36.50
2019-03-02T09:02:22.691Z,31.50
2019-03-02T09:03:26.017Z,29.50
2019-03-02T09:04:28.794Z,30.50
2019-03-02T09:05:43.613Z,31.25
2019-03-02T09:06:36.241Z,27.25
2019-03-02T09:07:41.387Z,29.00
2019-03-02T09:08:44.225Z,28.75
2019-03-02T09:09:47.759Z,29.00
2019-03-02T09:10:51.047Z,29.50
2019-03-02T09:11:55.817Z,27.75
2019-03-02T09:12:59.799Z,31.00
2019-03-02T09:14:03.162Z,34.25
2019-03-02T09:15:06.045Z,34.75
2019-03-02T09:16:09.231Z,32.75
2019-03-02T09:17:17.708Z,31.75
2019-03-02T09:18:19.535Z,36.00
2019-03-02T09:19:25.080Z,34.00
2019-03-02T09:20:32.441Z,39.00
2019-03-02T09:21:35.540Z,32.00
2019-03-02T09:22:38.430Z,31.25
2019-03-02T09:23:41.306Z,31.75
2019-03-02T09:24:45.775Z,31.75
2019-03-02T09:25:48.679Z,26.50
2019-03-02T09:26:53.673Z,32.00
2019-03-02T09:27:56.487Z,35.25
2019-03-02T09:28:59.417Z,34.25
2019-03-02T09:30:02.249Z,30.75
2019-03-02T09:31:05.073Z,31.25
2019-03-02T09:32:10.991Z,31.75
2019-03-02T09:33:12.344Z,30.75
2019-03-02T09:34:15.307Z,34.00
2019-03-02T09:35:18.157Z,29.75
2019-03-02T09:36:21.018Z,41.50
2019-03-02T09:37:24.118Z,31.25
2019-03-02T09:38:31.938Z,34.50
2019-03-02T09:39:37.273Z,31.75
2019-03-02T09:40:42.437Z,33.00
2019-03-02T09:41:48.038Z,37.25
2019-03-02T09:42:51.773Z,36.75
2019-03-02T09:43:55.257Z,37.25
2019-03-02T09:44:59.055Z,32.75
2019-03-02T09:46:03.629Z,38.75
2019-03-02T09:47:09.091Z,37.75
2019-03-02T09:48:14.178Z,31.25
2019-03-02T09:49:17.019Z,34.50
2019-03-02T09:50:21.910Z,34.50
2019-03-02T09:51:24.819Z,37.25
2019-03-02T09:52:27.628Z,34.75
2019-03-02T09:53:35.033Z,35.75
2019-03-02T09:54:39.592Z,37.25
2019-03-02T09:55:42.377Z,32.00
2019-03-02T09:56:46.123Z,39.25
2019-03-02T09:57:48.951Z,37.25
2019-03-02T09:58:53.082Z,41.25
2019-03-02T09:59:56.304Z,33.75
2019-03-02T10:01:01.130Z,32.25
2019-03-02T10:02:06.286Z,32.25
2019-03-02T10:03:09.155Z,40.75
2019-03-02T10:04:11.948Z,36.75
2019-03-02T10:05:15.544Z,35.75
2019-03-02T10:06:21.786Z,35.25
2019-03-02T10:07:28.459Z,38.50
2019-03-02T10:08:32.975Z,46.00
2019-03-02T10:09:35.839Z,33.50
2019-03-02T10:10:41.152Z,42.00
2019-03-02T10:11:46.233Z,34.50
2019-03-02T10:12:51.458Z,36.75
2019-03-02T10:13:56.914Z,37.00
2019-03-02T10:15:00.753Z,32.00
2019-03-02T10:16:04.495Z,32.75
2019-03-02T10:17:11.314Z,39.25
2019-03-02T10:18:17.936Z,34.75
2019-03-02T10:19:25.145Z,31.75
2019-03-02T10:20:29.750Z,35.50
2019-03-02T10:21:32.585Z,34.25
2019-03-02T10:22:35.503Z,35.75
2019-03-02T10:23:41.965Z,37.25
2019-03-02T10:24:49.789Z,33.50
2019-03-02T10:25:53.145Z,36.75
2019-03-02T10:26:55.955Z,35.00
2019-03-02T10:27:59.070Z,33.75
2019-03-02T10:29:01.897Z,35.00
2019-03-02T10:30:04.825Z,32.75
2019-03-02T10:31:10.926Z,32.50
2019-03-02T10:32:13.762Z,32.75
2019-03-02T10:33:23.350Z,35.00
2019-03-02T10:34:26.124Z,30.50
2019-03-02T10:35:28.949Z,32.25
2019-03-02T10:36:32.474Z,41.50
2019-03-02T10:37:35.385Z,43.50
2019-03-02T10:38:38.610Z,37.25
2019-03-02T10:39:41.675Z,34.00
2019-03-02T10:40:45.037Z,38.00
2019-03-02T10:41:49.224Z,29.75
2019-03-02T10:42:59.012Z,35.25
2019-03-02T10:43:59.175Z,39.00
2019-03-02T10:45:02.096Z,34.75
2019-03-02T10:46:07.177Z,36.75
2019-03-02T10:47:14.975Z,38.75
2019-03-02T10:48:33.267Z,44.00
2019-03-02T10:49:44.675Z,33.50
2019-03-02T10:50:51.103Z,39.00
2019-03-02T10:51:55.698Z,38.00
2019-03-02T10:52:58.620Z,35.75
2019-03-02T10:55:08.451Z,40.50
2019-03-02T10:56:10.386Z,32.00
2019-03-02T10:57:13.194Z,38.25
2019-03-02T10:58:16.003Z,38.75
2019-03-02T10:59:19.343Z,37.00
2019-03-02T11:00:30.842Z,31.75
2019-03-02T11:01:35.888Z,39.25
2019-03-02T11:02:38.734Z,36.50
2019-03-02T11:03:41.652Z,39.50
2019-03-02T11:04:55.354Z,35.25
2019-03-02T11:06:23.046Z,37.00
2019-03-02T11:08:02.601Z,30.00
2019-03-02T11:09:36.444Z,30.50
2019-03-02T11:11:05.583Z,32.50
2019-03-02T11:12:25.545Z,39.00
2019-03-02T11:13:35.066Z,34.25
2019-03-02T11:14:50.194Z,36.25
2019-03-02T11:16:20.556Z,37.75
2019-03-02T11:17:44.961Z,34.25
2019-03-02T11:19:21.502Z,33.75
2019-03-02T11:20:45.805Z,41.00
2019-03-02T11:22:10.970Z,28.75
2019-03-02T11:23:34.147Z,35.00
2019-03-02T11:25:01.632Z,39.25
2019-03-02T11:26:25.808Z,45.00
2019-03-02T11:27:51.071Z,40.50
2019-03-02T11:29:11.333Z,46.00
2019-03-02T11:43:20.758Z,36.00
2019-03-02T11:44:42.618Z,42.00
2019-03-02T11:45:51.734Z,36.50
2019-03-02T11:47:13.507Z,36.25
2019-03-02T11:48:36.441Z,37.50
2019-03-02T11:49:58.172Z,33.50
2019-03-02T11:51:13.056Z,39.25
2019-03-02T11:52:38.435Z,39.50
2019-03-02T11:53:59.455Z,29.75
2019-03-02T11:55:23.848Z,37.25
2019-03-02T11:56:46.448Z,35.00
2019-03-02T11:58:02.419Z,35.50
2019-03-02T11:59:27.255Z,33.00
2019-03-02T12:00:57.892Z,30.50
2019-03-02T12:02:19.921Z,31.75
2019-03-02T12:03:39.852Z,34.00
2019-03-02T12:05:05.299Z,34.50
2019-03-02T12:06:27.828Z,33.25
2019-03-02T12:07:49.281Z,36.75
2019-03-02T12:09:13.957Z,30.75
2019-03-02T12:10:21.457Z,35.25
2019-03-02T12:11:49.307Z,33.50
2019-03-02T12:13:07.255Z,33.00
2019-03-02T12:14:26.911Z,34.50
2019-03-02T12:15:45.953Z,37.25
2019-03-02T12:17:15.385Z,36.25
2019-03-02T12:18:35.626Z,32.00
2019-03-02T12:19:47.839Z,30.75
2019-03-02T12:21:12.458Z,41.25
2019-03-02T12:22:45.966Z,36.00
2019-03-02T12:24:19.215Z,36.75
2019-03-02T12:25:39.928Z,35.75
2019-03-02T12:26:59.695Z,31.75
2019-03-02T12:28:40.144Z,32.75
2019-03-02T12:30:08.181Z,32.25
2019-03-02T12:31:32.943Z,35.25
2019-03-02T12:33:00.488Z,38.25
2019-03-02T12:34:22.448Z,33.00
2019-03-02T12:35:41.967Z,43.50
2019-03-02T12:37:01.074Z,35.50
2019-03-02T12:38:31.800Z,42.25
2019-03-02T12:39:46.312Z,27.75
2019-03-02T12:41:15.675Z,37.00
2019-03-02T12:42:30.447Z,35.50
2019-03-02T12:43:59.445Z,30.25
2019-03-02T12:45:36.274Z,37.00
2019-03-02T12:47:06.543Z,34.25
2019-03-02T12:48:43.409Z,31.25
2019-03-02T12:50:01.967Z,38.25
2019-03-02T12:51:26.429Z,29.25
2019-03-02T12:52:51.310Z,33.25
2019-03-02T12:54:04.836Z,34.50
2019-03-02T12:55:35.191Z,32.00
2019-03-02T12:56:56.772Z,33.00
2019-03-02T12:58:27.590Z,37.00
2019-03-02T13:00:10.267Z,33.50
2019-03-02T13:01:38.740Z,33.25
2019-03-02T13:03:04.316Z,36.50
2019-03-02T13:04:37.558Z,33.00
2019-03-02T13:05:58.858Z,33.25
2019-03-02T13:07:17.161Z,34.50
2019-03-02T13:08:48.517Z,34.75
2019-03-02T13:10:16.085Z,31.75
2019-03-02T13:11:36.595Z,33.25
2019-03-02T13:12:51.621Z,34.50
2019-03-02T13:14:11.646Z,31.50
2019-03-02T13:15:42.217Z,28.75
2019-03-02T13:17:08.451Z,36.75
2019-03-02T13:18:28.630Z,34.00
2019-03-02T13:19:42.512Z,28.75
2019-03-02T13:20:54.640Z,32.25
2019-03-02T13:22:19.111Z,33.00
2019-03-02T13:23:34.586Z,34.75
2019-03-02T13:25:03.919Z,33.25
2019-03-02T13:26:34.721Z,34.50
2019-03-02T13:28:05.099Z,28.25
2019-03-02T13:29:20.707Z,31.75
2019-03-02T13:30:34.012Z,35.00
2019-03-02T13:32:10.469Z,33.00
2019-03-02T13:33:30.211Z,35.50
2019-03-02T13:34:48.869Z,31.75
2019-03-02T13:36:04.660Z,38.75
2019-03-02T13:37:25.192Z,32.50
2019-03-02T13:38:40.707Z,32.75
2019-03-02T13:40:22.357Z,32.75
2019-03-02T13:41:47.876Z,33.25
2019-03-02T13:43:07.468Z,31.75
2019-03-02T13:44:26.757Z,31.00
2019-03-02T13:45:51.760Z,32.50
2019-03-02T13:47:13.568Z,34.50
2019-03-02T13:50:01.466Z,32.25
2019-03-02T13:51:30.002Z,39.00
2019-03-02T13:52:43.492Z,35.75
2019-03-02T13:54:15.340Z,30.00
2019-03-02T13:55:38.058Z,37.00
2019-03-02T13:57:01.109Z,32.75
2019-03-02T13:58:25.771Z,31.50
2019-03-02T13:59:47.308Z,35.25
2019-03-02T14:01:12.123Z,39.00
2019-03-02T14:02:38.266Z,32.75
2019-03-02T14:04:04.538Z,40.25
2019-03-02T14:05:32.149Z,30.50
2019-03-02T14:06:46.239Z,37.25
2019-03-02T14:08:17.011Z,32.75
2019-03-02T14:09:40.592Z,31.25
2019-03-02T14:11:02.901Z,35.25
2019-03-02T14:12:24.947Z,31.25
2019-03-02T14:13:57.254Z,29.75
2019-03-02T14:15:12.604Z,34.75
2019-03-02T14:16:35.402Z,34.75
2019-03-02T14:17:58.868Z,40.25
2019-03-02T14:19:37.999Z,34.00
2019-03-02T14:21:01.314Z,26.75
2019-03-02T14:22:21.637Z,35.00
2019-03-02T14:23:46.125Z,33.50
2019-03-02T14:25:08.192Z,32.50
2019-03-02T14:26:28.413Z,37.00
2019-03-02T14:27:58.871Z,35.00
2019-03-02T14:29:11.361Z,29.75
2019-03-02T14:30:32.594Z,35.00
2019-03-02T14:31:54.303Z,31.75
2019-03-02T14:33:11.103Z,33.25
2019-03-02T14:34:30.530Z,32.00
2019-03-02T14:36:04.284Z,29.00
2019-03-02T14:37:15.931Z,28.00
2019-03-02T14:38:46.037Z,31.75
2019-03-02T14:40:10.836Z,31.25
2019-03-02T14:41:24.429Z,33.50
2019-03-02T14:42:44.385Z,32.75
2019-03-02T14:44:09.079Z,33.75
2019-03-02T14:45:30.589Z,28.50
2019-03-02T14:46:49.001Z,31.75
2019-03-02T14:48:02.959Z,28.00
2019-03-02T14:49:33.315Z,29.75
2019-03-02T14:51:06.683Z,26.50
2019-03-02T14:52:43.447Z,27.25
2019-03-02T14:54:17.020Z,27.75
2019-03-02T14:55:33.580Z,27.75
2019-03-02T14:57:07.761Z,31.50
2019-03-02T14:58:28.740Z,29.25
2019-03-02T14:59:50.157Z,28.25
2019-03-02T15:01:12.581Z,23.50
2019-03-02T15:02:26.704Z,27.50
2019-03-02T15:03:48.219Z,30.00